createdAt,value
2023-03-28T00:02:07.922Z,6.60
2023-03-28T00:04:37.880Z,6.50
2023-03-28T00:07:07.065Z,6.60
2023-03-28T00:09:38.129Z,6.50
2023-03-28T00:12:06.716Z,6.60
2023-03-28T00:14:36.157Z,6.60
2023-03-28T00:17:07.620Z,6.60
2023-03-28T00:19:41.214Z,6.50
2023-03-28T00:22:09.751Z,6.50
2023-03-28T00:24:39.171Z,6.50
2023-03-28T00:27:07.882Z,6.50
2023-03-28T00:29:36.441Z,6.50
2023-03-28T00:32:04.576Z,6.50
2023-03-28T00:34:33.094Z,6.40
2023-03-28T00:37:02.991Z,6.40
2023-03-28T00:39:31.422Z,6.40
2023-03-28T00:42:03.487Z,6.40
2023-03-28T00:44:52.292Z,6.40
2023-03-28T00:47:44.482Z,6.40
2023-03-28T00:50:20.545Z,6.40
2023-03-28T00:52:54.501Z,6.40
2023-03-28T00:55:27.585Z,6.30
2023-03-28T00:57:57.296Z,6.30
2023-03-28T01:00:26.639Z,6.30
2023-03-28T01:02:58.839Z,6.30
2023-03-28T01:05:29.507Z,7.00
2023-03-28T01:08:01.519Z,6.30
2023-03-28T01:10:31.337Z,6.30
2023-03-28T01:13:03.292Z,6.30
2023-03-28T01:15:33.426Z,6.30
2023-03-28T01:18:04.161Z,6.30
2023-03-28T01:21:02.149Z,6.30
2023-03-28T01:24:11.284Z,6.30
2023-03-28T01:27:02.586Z,6.30
2023-03-28T01:30:04.971Z,6.30
2023-03-28T01:32:55.116Z,6.30
2023-03-28T01:35:58.880Z,6.30
2023-03-28T01:38:32.582Z,6.20
2023-03-28T01:41:08.535Z,6.30
2023-03-28T01:43:48.056Z,6.20
2023-03-28T01:46:20.056Z,6.20
2023-03-28T01:48:58.852Z,6.20
2023-03-28T01:51:36.460Z,6.20
2023-03-28T01:54:13.434Z,6.20
2023-03-28T01:56:49.590Z,6.20
2023-03-28T01:59:21.829Z,6.20
2023-03-28T02:01:55.371Z,6.20
2023-03-28T02:04:27.138Z,6.10
2023-03-28T02:06:56.986Z,6.10
2023-03-28T02:09:28.182Z,6.10
2023-03-28T02:12:00.414Z,6.10
2023-03-28T02:14:34.591Z,6.10
2023-03-28T02:17:09.415Z,6.10
2023-03-28T02:19:40.197Z,6.10
2023-03-28T02:22:16.963Z,6.00
2023-03-28T02:24:50.506Z,6.00
2023-03-28T02:27:20.214Z,6.00
2023-03-28T02:29:50.045Z,6.00
2023-03-28T02:32:22.177Z,5.90
2023-03-28T02:34:52.623Z,5.90
2023-03-28T02:37:33.678Z,5.90
2023-03-28T02:40:13.846Z,5.90
2023-03-28T02:43:15.177Z,5.90
2023-03-28T02:46:15.054Z,5.90
2023-03-28T02:48:56.685Z,5.90
2023-03-28T02:51:35.224Z,5.90
2023-03-28T02:54:19.868Z,5.90
2023-03-28T02:57:01.764Z,5.80
2023-03-28T02:59:35.735Z,5.80
2023-03-28T03:02:05.014Z,5.80
2023-03-28T03:04:33.690Z,5.80
2023-03-28T03:07:02.629Z,5.80
2023-03-28T03:09:31.012Z,5.80
2023-03-28T03:12:00.481Z,5.80
2023-03-28T03:14:28.574Z,5.80
2023-03-28T03:16:56.676Z,5.80
2023-03-28T03:19:25.227Z,5.80
2023-03-28T03:21:54.211Z,5.80
2023-03-28T03:24:24.012Z,5.70
2023-03-28T03:26:52.130Z,5.70
2023-03-28T03:29:22.501Z,5.70
2023-03-28T03:31:50.622Z,5.70
2023-03-28T03:34:19.312Z,5.70
2023-03-28T03:36:47.495Z,5.60
2023-03-28T03:39:16.046Z,5.60
2023-03-28T03:41:44.116Z,5.70
2023-03-28T03:44:12.181Z,5.60
2023-03-28T03:46:42.264Z,5.60
2023-03-28T03:49:10.836Z,5.60
2023-03-28T03:51:39.985Z,5.60
2023-03-28T03:54:08.075Z,5.60
2023-03-28T03:56:36.876Z,5.50
2023-03-28T03:59:05.218Z,5.60
2023-03-28T04:01:34.846Z,5.50
2023-03-28T04:04:04.929Z,5.50
2023-03-28T04:06:33.038Z,5.50
2023-03-28T04:09:01.689Z,5.50
2023-03-28T04:11:29.687Z,5.50
2023-03-28T04:13:58.256Z,5.50
2023-03-28T04:16:26.413Z,5.40
2023-03-28T04:18:56.212Z,5.40
2023-03-28T04:21:28.943Z,5.40
2023-03-28T04:23:58.566Z,5.40
2023-03-28T04:26:27.114Z,5.40
2023-03-28T04:28:56.392Z,5.30
2023-03-28T04:31:29.862Z,5.30
2023-03-28T04:33:58.538Z,5.30
2023-03-28T04:36:29.733Z,5.30
2023-03-28T04:39:02.868Z,5.30
2023-03-28T04:41:32.224Z,5.30
2023-03-28T04:44:01.275Z,5.30
2023-03-28T04:46:29.775Z,5.30
2023-03-28T04:48:58.452Z,5.30
2023-03-28T04:51:29.110Z,5.30
2023-03-28T04:53:57.166Z,5.30
2023-03-28T04:56:25.711Z,5.30
2023-03-28T04:58:53.769Z,5.20
2023-03-28T05:01:23.045Z,5.30
2023-03-28T05:03:51.117Z,5.20
2023-03-28T05:06:19.738Z,5.20
2023-03-28T05:08:49.794Z,5.20
2023-03-28T05:11:18.367Z,5.20
2023-03-28T05:13:46.419Z,5.20
2023-03-28T05:16:14.522Z,5.10
2023-03-28T05:18:43.144Z,5.10
2023-03-28T05:21:11.309Z,5.10
2023-03-28T05:23:39.877Z,5.20
2023-03-28T05:26:09.924Z,5.20
2023-03-28T05:28:38.123Z,5.20
2023-03-28T05:31:08.118Z,5.10
2023-03-28T05:33:37.256Z,5.10
2023-03-28T05:36:06.560Z,5.10
2023-03-28T05:38:34.744Z,5.10
2023-03-28T05:41:03.595Z,5.10
2023-03-28T05:43:33.077Z,5.10
2023-03-28T05:46:01.659Z,5.10
2023-03-28T05:48:30.326Z,5.10
2023-03-28T05:50:58.661Z,5.10
2023-03-28T05:53:27.327Z,5.10
2023-03-28T05:55:55.822Z,5.10
2023-03-28T05:58:24.023Z,5.10
2023-03-28T06:00:53.557Z,5.20
2023-03-28T06:03:22.397Z,5.10
2023-03-28T06:05:51.109Z,5.20
2023-03-28T06:08:19.684Z,5.20
2023-03-28T06:10:51.232Z,5.30
2023-03-28T06:13:19.568Z,5.30
2023-03-28T06:15:48.182Z,5.30
2023-03-28T06:18:17.701Z,5.30
2023-03-28T06:20:46.350Z,5.30
2023-03-28T06:23:14.462Z,5.40
2023-03-28T06:25:42.540Z,5.40
2023-03-28T06:28:10.843Z,5.40
2023-03-28T06:30:40.261Z,5.40
2023-03-28T06:33:09.047Z,5.50
2023-03-28T06:35:39.020Z,5.50
2023-03-28T06:38:07.594Z,5.50
2023-03-28T06:40:35.802Z,5.50
2023-03-28T06:43:04.312Z,5.60
2023-03-28T06:45:32.412Z,5.60
2023-03-28T06:48:00.977Z,5.60
2023-03-28T06:50:29.134Z,5.70
2023-03-28T06:52:58.599Z,5.70
2023-03-28T06:55:26.731Z,5.70
2023-03-28T06:57:54.843Z,5.70
2023-03-28T07:00:23.759Z,5.70
2023-03-28T07:02:51.832Z,5.80
2023-03-28T07:05:20.407Z,5.80
2023-03-28T07:07:49.467Z,5.80
2023-03-28T07:10:19.679Z,5.80
2023-03-28T07:12:47.839Z,5.80
2023-03-28T07:15:17.248Z,5.80
2023-03-28T07:17:46.487Z,5.80
2023-03-28T07:20:15.417Z,5.80
2023-03-28T07:22:43.975Z,5.80
2023-03-28T07:25:12.150Z,5.80
2023-03-28T07:27:42.202Z,5.90
2023-03-28T07:30:11.347Z,5.90
2023-03-28T07:32:51.397Z,5.90
2023-03-28T07:35:22.603Z,5.90
2023-03-28T07:37:51.176Z,5.90
2023-03-28T07:40:19.472Z,5.90
2023-03-28T07:42:50.370Z,5.90
2023-03-28T07:45:18.561Z,5.90
2023-03-28T07:47:47.235Z,6.00
2023-03-28T07:50:15.862Z,6.00
2023-03-28T07:52:46.123Z,6.00
2023-03-28T07:55:15.058Z,6.00
2023-03-28T07:57:45.754Z,6.00
2023-03-28T08:00:18.088Z,6.00
2023-03-28T08:02:46.642Z,6.10
2023-03-28T08:05:15.457Z,6.10
2023-03-28T08:07:46.521Z,6.10
2023-03-28T08:10:15.024Z,6.10
2023-03-28T08:12:43.632Z,6.10
2023-03-28T08:15:12.582Z,6.20
2023-03-28T08:17:42.052Z,6.20
2023-03-28T08:20:11.851Z,6.20
2023-03-28T08:22:39.945Z,6.20
2023-03-28T08:25:09.390Z,6.30
2023-03-28T08:27:37.433Z,6.30
2023-03-28T08:30:06.644Z,6.30
2023-03-28T08:32:35.227Z,6.30
2023-03-28T08:35:06.253Z,6.40
2023-03-28T08:37:35.219Z,6.40
2023-03-28T08:40:10.687Z,6.40
2023-03-28T08:42:58.208Z,6.50
2023-03-28T08:45:38.468Z,6.50
2023-03-28T08:48:17.278Z,6.60
2023-03-28T08:50:50.891Z,6.70
2023-03-28T08:53:26.422Z,6.70
2023-03-28T08:55:56.936Z,6.70
2023-03-28T08:58:28.942Z,6.80
2023-03-28T09:00:56.993Z,6.80
2023-03-28T09:03:26.989Z,6.90
2023-03-28T09:06:05.276Z,6.90
2023-03-28T09:09:11.923Z,7.00
2023-03-28T09:11:51.013Z,7.00
2023-03-28T09:14:35.918Z,7.10
2023-03-28T09:17:11.341Z,7.10
2023-03-28T09:19:56.038Z,7.20
2023-03-28T09:22:35.218Z,7.30
2023-03-28T09:25:22.993Z,7.30
2023-03-28T09:27:58.655Z,7.40
2023-03-28T09:30:31.151Z,7.40
2023-03-28T09:33:04.996Z,7.40
2023-03-28T09:35:34.228Z,7.50
2023-03-28T09:38:11.044Z,7.60
2023-03-28T09:40:43.154Z,7.60
2023-03-28T09:43:19.534Z,7.70
2023-03-28T09:46:00.425Z,7.70
2023-03-28T09:48:31.412Z,7.80
2023-03-28T09:51:01.427Z,7.80
2023-03-28T09:53:33.403Z,7.80
2023-03-28T09:56:05.282Z,7.90
2023-03-28T09:58:50.101Z,7.90
2023-03-28T10:01:38.009Z,7.90
2023-03-28T10:04:12.610Z,8.00
2023-03-28T10:06:42.240Z,8.00
2023-03-28T10:09:20.805Z,8.00
2023-03-28T10:11:52.185Z,8.10
2023-03-28T10:14:34.469Z,8.10
2023-03-28T10:17:04.987Z,8.10
2023-03-28T10:19:36.378Z,8.20
2023-03-28T10:22:08.411Z,8.20
2023-03-28T10:24:39.791Z,8.20
2023-03-28T10:27:13.753Z,8.20
2023-03-28T10:29:42.080Z,8.30
2023-03-28T10:32:13.931Z,8.40
2023-03-28T10:34:42.019Z,8.50
2023-03-28T10:37:27.919Z,8.50
2023-03-28T10:40:07.054Z,8.60
2023-03-28T10:42:45.720Z,8.70
2023-03-28T10:45:23.714Z,8.70
2023-03-28T10:47:53.862Z,8.80
2023-03-28T10:50:44.061Z,8.90
2023-03-28T10:53:30.892Z,9.00
2023-03-28T10:56:14.655Z,9.10
2023-03-28T10:58:48.966Z,9.20
2023-03-28T11:01:21.046Z,9.20
2023-03-28T11:04:07.310Z,9.20
2023-03-28T11:06:41.048Z,9.10
2023-03-28T11:09:18.456Z,9.20
2023-03-28T11:12:00.737Z,9.30
2023-03-28T11:14:44.854Z,9.30
2023-03-28T11:17:19.549Z,9.40
2023-03-28T11:20:23.243Z,9.40
2023-03-28T11:23:06.943Z,9.40
2023-03-28T11:25:43.915Z,9.40
2023-03-28T11:28:23.039Z,9.40
2023-03-28T11:30:54.435Z,9.40
2023-03-28T11:33:31.659Z,9.50
2023-03-28T11:36:05.768Z,9.60
2023-03-28T11:38:37.419Z,9.80
2023-03-28T11:41:11.009Z,9.90
2023-03-28T11:43:46.834Z,10.10
2023-03-28T11:46:19.174Z,10.30
2023-03-28T11:48:55.411Z,10.50
2023-03-28T11:51:29.624Z,10.70
2023-03-28T11:54:01.641Z,11.00
2023-03-28T11:56:41.038Z,11.20
2023-03-28T11:59:17.262Z,11.40
2023-03-28T12:01:49.039Z,11.50
2023-03-28T12:04:22.248Z,11.70
2023-03-28T12:07:02.816Z,11.80
2023-03-28T12:09:35.899Z,12.00
2023-03-28T12:12:10.463Z,12.20
2023-03-28T12:14:49.029Z,12.20
2023-03-28T12:17:21.168Z,12.40
2023-03-28T12:19:49.756Z,12.40
2023-03-28T12:22:27.208Z,12.50
2023-03-28T12:25:06.154Z,12.50
2023-03-28T12:27:43.757Z,12.60
2023-03-28T12:30:22.564Z,12.70
2023-03-28T12:33:03.353Z,12.80
2023-03-28T12:35:40.732Z,12.90
2023-03-28T12:38:21.211Z,13.00
2023-03-28T12:40:55.943Z,13.20
2023-03-28T12:43:29.284Z,13.30
2023-03-28T12:46:03.263Z,13.50
2023-03-28T12:48:37.430Z,13.60
2023-03-28T12:51:12.385Z,13.70
2023-03-28T12:53:46.334Z,13.80
2023-03-28T12:56:17.012Z,14.00
2023-03-28T12:58:48.840Z,14.10
2023-03-28T13:01:30.228Z,14.20
2023-03-28T13:04:06.625Z,14.30
2023-03-28T13:06:44.243Z,14.50
2023-03-28T13:09:44.844Z,14.60
2023-03-28T13:12:36.734Z,14.70
2023-03-28T13:15:26.627Z,14.90
2023-03-28T13:18:27.840Z,15.00
2023-03-28T13:20:57.211Z,15.20
2023-03-28T13:23:31.784Z,15.30
2023-03-28T13:26:03.022Z,15.50
2023-03-28T13:28:39.415Z,15.60
2023-03-28T13:31:11.844Z,15.70
2023-03-28T13:33:47.920Z,15.80
2023-03-28T13:36:22.234Z,16.00
2023-03-28T13:38:57.001Z,16.10
2023-03-28T13:41:55.232Z,16.20
2023-03-28T13:44:27.204Z,16.30
2023-03-28T13:46:55.791Z,16.30
2023-03-28T13:49:37.875Z,16.40
2023-03-28T13:52:09.798Z,16.40
2023-03-28T13:54:38.636Z,16.40
2023-03-28T13:57:08.735Z,16.50
2023-03-28T13:59:40.097Z,16.50
2023-03-28T14:02:18.419Z,16.60
2023-03-28T14:04:54.683Z,16.60
2023-03-28T14:07:27.579Z,16.60
2023-03-28T14:09:57.975Z,16.60
2023-03-28T14:12:29.037Z,16.60
2023-03-28T14:14:59.969Z,16.60
2023-03-28T14:17:31.118Z,16.60
2023-03-28T14:20:04.935Z,16.60
2023-03-28T14:22:40.821Z,16.60
2023-03-28T14:25:16.232Z,16.70
2023-03-28T14:27:48.453Z,16.70
2023-03-28T14:30:20.767Z,16.70
2023-03-28T14:33:00.605Z,16.80
2023-03-28T14:35:32.078Z,16.80
2023-03-28T14:38:02.150Z,16.90
2023-03-28T14:40:33.555Z,16.90
2023-03-28T14:43:05.543Z,16.90
2023-03-28T14:45:37.807Z,17.00
2023-03-28T14:48:09.525Z,17.00
2023-03-28T14:50:40.943Z,17.10
2023-03-28T14:53:15.107Z,17.20
2023-03-28T14:55:44.143Z,17.20
2023-03-28T14:58:14.300Z,17.30
2023-03-28T15:00:45.498Z,17.30
2023-03-28T15:03:17.133Z,17.30
2023-03-28T15:05:54.246Z,17.30
2023-03-28T15:08:28.269Z,17.30
2023-03-28T15:10:57.524Z,17.20
2023-03-28T15:13:37.591Z,17.20
2023-03-28T15:16:08.201Z,17.10
2023-03-28T15:18:44.425Z,17.10
2023-03-28T15:21:16.274Z,17.00
2023-03-28T15:23:47.729Z,16.90
2023-03-28T15:26:26.021Z,16.80
2023-03-28T15:28:56.506Z,16.60
2023-03-28T15:31:26.296Z,16.50
2023-03-28T15:33:55.339Z,16.30
2023-03-28T15:36:30.249Z,16.20
2023-03-28T15:39:01.323Z,16.10
2023-03-28T15:41:43.493Z,16.00
2023-03-28T15:44:23.413Z,15.90
2023-03-28T15:46:54.924Z,15.80
2023-03-28T15:49:23.866Z,15.70
2023-03-28T15:51:55.602Z,15.70
2023-03-28T15:54:31.190Z,15.60
2023-03-28T15:57:02.321Z,15.50
2023-03-28T15:59:35.447Z,15.40
2023-03-28T16:02:21.827Z,15.40
2023-03-28T16:05:01.357Z,15.40
2023-03-28T16:07:34.866Z,15.50
2023-03-28T16:10:03.050Z,15.50
2023-03-28T16:12:32.641Z,15.60
2023-03-28T16:15:01.220Z,15.80
2023-03-28T16:17:31.512Z,15.90
2023-03-28T16:20:00.040Z,16.00
2023-03-28T16:22:28.819Z,16.20
2023-03-28T16:24:58.294Z,16.30
2023-03-28T16:27:27.221Z,16.40
2023-03-28T16:29:55.285Z,16.50
2023-03-28T16:32:24.412Z,16.60
2023-03-28T16:34:52.523Z,16.60
2023-03-28T16:37:20.685Z,16.60
2023-03-28T16:39:49.691Z,16.70
2023-03-28T16:42:20.850Z,16.60
2023-03-28T16:44:49.051Z,16.60
2023-03-28T16:47:17.087Z,16.50
2023-03-28T16:49:45.730Z,16.30
2023-03-28T16:52:13.826Z,16.20
2023-03-28T16:54:42.467Z,16.00
2023-03-28T16:57:11.229Z,15.90
2023-03-28T16:59:41.206Z,15.70
2023-03-28T17:02:10.733Z,15.60
2023-03-28T17:04:38.857Z,15.40
2023-03-28T17:07:07.893Z,15.30
2023-03-28T17:09:36.306Z,15.10
2023-03-28T17:12:05.891Z,15.00
2023-03-28T17:14:33.922Z,14.80
2023-03-28T17:17:04.144Z,14.70
2023-03-28T17:19:33.018Z,14.50
2023-03-28T17:22:01.592Z,14.40
2023-03-28T17:24:30.051Z,14.30
2023-03-28T17:26:58.337Z,14.20
2023-03-28T17:29:27.047Z,14.00
2023-03-28T17:31:55.178Z,13.90
2023-03-28T17:34:25.263Z,13.70
2023-03-28T17:36:53.873Z,13.60
2023-03-28T17:39:23.080Z,13.40
2023-03-28T17:41:51.861Z,13.30
2023-03-28T17:44:19.969Z,13.20
2023-03-28T17:46:48.157Z,13.00
2023-03-28T17:49:18.164Z,12.90
2023-03-28T17:51:48.075Z,12.80
2023-03-28T17:54:16.601Z,12.60
2023-03-28T17:56:45.262Z,12.50
2023-03-28T17:59:13.775Z,12.40
2023-03-28T18:01:42.327Z,12.30
2023-03-28T18:04:10.502Z,12.10
2023-03-28T18:06:39.200Z,12.00
2023-03-28T18:09:08.630Z,11.90
2023-03-28T18:11:39.661Z,11.70
2023-03-28T18:14:09.096Z,11.60
2023-03-28T18:16:38.869Z,11.50
2023-03-28T18:19:09.105Z,11.40
2023-03-28T18:21:38.584Z,11.40
2023-03-28T18:24:08.793Z,11.30
2023-03-28T18:26:37.443Z,11.20
2023-03-28T18:29:06.347Z,11.10
2023-03-28T18:31:36.809Z,11.00
2023-03-28T18:34:05.709Z,10.90
2023-03-28T18:36:37.734Z,10.80
2023-03-28T18:39:07.491Z,10.80
2023-03-28T18:41:36.930Z,10.80
2023-03-28T18:44:08.393Z,10.70
2023-03-28T18:46:36.417Z,10.60
2023-03-28T18:49:05.177Z,10.60
2023-03-28T18:51:33.901Z,10.50
2023-03-28T18:54:02.457Z,10.50
2023-03-28T18:56:30.519Z,10.40
2023-03-28T18:59:00.518Z,10.30
2023-03-28T19:01:29.444Z,10.30
2023-03-28T19:03:57.637Z,10.30
2023-03-28T19:06:26.287Z,10.20
2023-03-28T19:08:54.849Z,10.20
2023-03-28T19:11:23.717Z,10.20
2023-03-28T19:13:51.815Z,10.10
2023-03-28T19:16:22.077Z,10.10
2023-03-28T19:18:51.192Z,10.10
2023-03-28T19:21:19.460Z,10.00
2023-03-28T19:23:50.134Z,10.00
2023-03-28T19:26:18.462Z,9.90
2023-03-28T19:28:48.856Z,9.90
2023-03-28T19:31:19.241Z,9.80
2023-03-28T19:33:48.784Z,9.80
2023-03-28T19:36:17.388Z,9.80
2023-03-28T19:38:46.290Z,9.70
2023-03-28T19:41:19.106Z,9.70
2023-03-28T19:43:48.429Z,9.60
2023-03-28T19:46:21.457Z,9.60
2023-03-28T19:48:52.951Z,9.60
2023-03-28T19:51:21.073Z,9.50
2023-03-28T19:53:50.701Z,9.50
2023-03-28T19:56:19.746Z,9.50
2023-03-28T19:58:48.548Z,9.50
2023-03-28T20:01:16.652Z,9.40
2023-03-28T20:03:45.278Z,9.40
2023-03-28T20:06:16.555Z,9.40
2023-03-28T20:08:45.609Z,9.40
2023-03-28T20:11:16.626Z,9.40
2023-03-28T20:13:45.840Z,9.30
2023-03-28T20:16:15.191Z,9.30
2023-03-28T20:18:43.459Z,9.30
2023-03-28T20:21:15.619Z,9.30
2023-03-28T20:23:44.145Z,9.30
2023-03-28T20:26:18.321Z,9.20
2023-03-28T20:28:50.511Z,9.30
2023-03-28T20:31:19.612Z,9.30
2023-03-28T20:33:48.699Z,9.30
2023-03-28T20:36:18.160Z,9.30
2023-03-28T20:38:46.910Z,9.30
2023-03-28T20:41:16.430Z,9.40
2023-03-28T20:43:48.191Z,9.40
2023-03-28T20:46:19.154Z,9.40
2023-03-28T20:48:53.189Z,9.40
2023-03-28T20:51:23.757Z,9.40
2023-03-28T20:53:54.441Z,9.40
2023-03-28T20:56:23.536Z,9.40
2023-03-28T20:58:53.310Z,9.40
2023-03-28T21:01:28.486Z,9.40
2023-03-28T21:03:59.497Z,9.40
2023-03-28T21:06:33.409Z,9.40
2023-03-28T21:09:04.966Z,9.40
2023-03-28T21:11:35.679Z,9.40
2023-03-28T21:14:05.113Z,9.50
2023-03-28T21:16:34.000Z,9.50
2023-03-28T21:19:03.891Z,9.50
2023-03-28T21:21:34.197Z,9.50
2023-03-28T21:24:03.694Z,9.50
2023-03-28T21:26:32.641Z,9.50
2023-03-28T21:29:01.211Z,9.50
2023-03-28T21:31:30.846Z,9.50
2023-03-28T21:34:01.405Z,9.50
2023-03-28T21:36:29.852Z,9.50
2023-03-28T21:38:59.774Z,9.50
2023-03-28T21:41:28.860Z,9.50
2023-03-28T21:43:57.411Z,9.50
2023-03-28T21:46:25.670Z,9.50
2023-03-28T21:48:54.096Z,9.50
2023-03-28T21:51:22.720Z,9.50
2023-03-28T21:53:51.330Z,9.60
2023-03-28T21:56:21.865Z,9.60
2023-03-28T21:58:50.187Z,9.50
2023-03-28T22:01:19.970Z,9.50
2023-03-28T22:03:48.824Z,9.50
2023-03-28T22:06:18.675Z,9.50
2023-03-28T22:08:52.760Z,9.50
2023-03-28T22:11:27.866Z,9.50
2023-03-28T22:14:01.877Z,9.50
2023-03-28T22:16:34.670Z,9.50
2023-03-28T22:19:03.417Z,9.60
2023-03-28T22:21:31.606Z,9.50
2023-03-28T22:24:00.704Z,9.50
2023-03-28T22:26:30.526Z,9.60
2023-03-28T22:28:59.491Z,9.50
2023-03-28T22:31:28.442Z,9.50
2023-03-28T22:33:57.087Z,9.60
2023-03-28T22:36:25.303Z,9.50
2023-03-28T22:38:54.774Z,9.50
2023-03-28T22:41:24.291Z,9.50
2023-03-28T22:43:53.672Z,9.50
2023-03-28T22:46:22.723Z,9.50
2023-03-28T22:48:54.302Z,9.40
2023-03-28T22:51:28.441Z,9.40
2023-03-28T22:54:00.647Z,9.40
2023-03-28T22:56:28.724Z,9.40
2023-03-28T22:59:01.664Z,9.30
2023-03-28T23:01:30.434Z,9.30
2023-03-28T23:03:58.872Z,9.30
2023-03-28T23:06:27.217Z,9.30
2023-03-28T23:08:55.750Z,9.30
2023-03-28T23:11:24.303Z,9.30
2023-03-28T23:13:53.250Z,9.20
2023-03-28T23:16:22.772Z,9.20
2023-03-28T23:18:51.368Z,9.20
2023-03-28T23:21:20.121Z,9.20
2023-03-28T23:23:48.731Z,9.10
2023-03-28T23:26:17.307Z,9.10
2023-03-28T23:28:46.204Z,9.10
2023-03-28T23:31:14.880Z,9.10
2023-03-28T23:33:46.324Z,9.10
2023-03-28T23:36:15.634Z,9.00
2023-03-28T23:38:43.720Z,9.00
2023-03-28T23:41:12.236Z,9.00
2023-03-28T23:43:40.403Z,9.00
2023-03-28T23:46:09.414Z,9.00
2023-03-28T23:48:37.488Z,9.10
2023-03-28T23:51:07.768Z,9.10
2023-03-28T23:53:36.342Z,9.10
2023-03-28T23:56:04.791Z,9.10
2023-03-28T23:58:33.406Z,9.10
